Terminal Aerodrome Forecast
Issued by NWS Charleston, SC

Home | Current Version | Previous Version | Text Only | Print | Product List | Glossary On
Versions: 1 2 3 4 5 6 7 8 9 10 11 12 13 14
000
FTUS42 KCHS 281100
TAFSAV
TAF
KSAV 281120Z 2812/2912 25010G15KT P6SM FEW040 SCT200
     FM281600 27014G20KT P6SM FEW050 SCT200
     FM282200 25010KT P6SM VCTS SCT035CB SCT050 BKN200
      TEMPO 2822/2902 4SM TSRA BR BKN025CB
     FM290400 29007KT P6SM BKN080=

USA.gov is the U.S. government's official web portal to all federal, state and local government web resources and services.